createdAt,value
2023-01-02T00:01:00.301Z,100394.88
2023-01-02T00:03:26.938Z,100394.88
2023-01-02T00:05:54.382Z,100387.81
2023-01-02T00:08:21.056Z,100392.22
2023-01-02T00:10:47.808Z,100376.28
2023-01-02T00:13:14.390Z,100400.16
2023-01-02T00:15:40.884Z,100401.06
2023-01-02T00:18:07.370Z,100402.84
2023-01-02T00:20:34.464Z,100396.63
2023-01-02T00:23:01.403Z,100384.25
2023-01-02T00:25:28.003Z,100379.81
2023-01-02T00:27:56.535Z,100383.34
2023-01-02T00:30:23.270Z,100373.63
2023-01-02T00:32:49.836Z,100361.22
2023-01-02T00:35:16.467Z,100355.06
2023-01-02T00:37:43.085Z,100345.31
2023-01-02T00:40:13.755Z,100344.44
2023-01-02T00:42:41.765Z,100333.81
2023-01-02T00:45:10.705Z,100332.06
2023-01-02T00:47:37.442Z,100326.75
2023-01-02T00:50:04.757Z,100324.09
2023-01-02T00:52:31.329Z,100311.69
2023-01-02T00:54:57.875Z,100305.53
2023-01-02T00:57:24.370Z,100296.66
2023-01-02T00:59:50.842Z,100296.66
2023-01-02T01:02:17.501Z,100293.16
2023-01-02T01:04:44.041Z,100282.53
2023-01-02T01:07:10.499Z,100277.22
2023-01-02T01:09:36.968Z,100271.94
2023-01-02T01:12:05.098Z,100288.72
2023-01-02T01:14:32.103Z,100288.72
2023-01-02T01:16:59.472Z,100278.09
2023-01-02T01:19:29.742Z,100274.59
2023-01-02T01:21:56.199Z,100285.16
2023-01-02T01:24:22.741Z,100271.91
2023-01-02T01:26:49.282Z,100266.59
2023-01-02T01:29:15.829Z,100263.97
2023-01-02T01:31:42.313Z,100255.13
2023-01-02T01:34:11.773Z,100249.81
2023-01-02T01:36:38.279Z,100256.88
2023-01-02T01:39:04.782Z,100251.59
2023-01-02T01:41:31.483Z,100254.25
2023-01-02T01:44:00.465Z,100256.88
2023-01-02T01:46:36.718Z,100234.78
2023-01-02T01:49:13.756Z,100245.38
2023-01-02T01:51:46.433Z,100244.50
2023-01-02T01:54:16.872Z,100243.63
2023-01-02T01:56:51.794Z,100246.25
2023-01-02T01:59:19.242Z,100252.44
2023-01-02T02:01:48.861Z,100245.38
2023-01-02T02:04:18.635Z,100243.59
2023-01-02T02:06:45.441Z,100247.16
2023-01-02T02:09:20.496Z,100244.50
2023-01-02T02:11:48.144Z,100239.19
2023-01-02T02:14:14.731Z,100243.59
2023-01-02T02:16:51.662Z,100241.84
2023-01-02T02:19:36.715Z,100240.97
2023-01-02T02:22:51.796Z,100240.97
2023-01-02T02:25:33.553Z,100230.38
2023-01-02T02:28:27.536Z,100225.06
2023-01-02T02:31:20.848Z,100224.16
2023-01-02T02:34:06.399Z,100214.44
2023-01-02T02:36:38.275Z,100215.34
2023-01-02T02:39:13.889Z,100219.75
2023-01-02T02:42:00.543Z,100199.41
2023-01-02T02:44:46.960Z,100204.72
2023-01-02T02:47:16.449Z,100200.28
2023-01-02T02:49:58.986Z,100190.59
2023-01-02T02:52:41.468Z,100185.28
2023-01-02T02:55:25.789Z,100190.56
2023-01-02T02:57:53.515Z,100175.53
2023-01-02T03:00:23.122Z,100179.06
2023-01-02T03:02:50.173Z,100183.44
2023-01-02T03:05:25.490Z,100182.53
2023-01-02T03:08:15.288Z,100181.63
2023-01-02T03:10:58.595Z,100177.22
2023-01-02T03:13:42.261Z,100178.94
2023-01-02T03:16:29.171Z,100167.41
2023-01-02T03:18:58.890Z,100159.41
2023-01-02T03:21:33.881Z,100159.41
2023-01-02T03:24:05.969Z,100157.59
2023-01-02T03:26:34.994Z,100169.06
2023-01-02T03:29:08.365Z,100160.19
2023-01-02T03:31:39.590Z,100152.16
2023-01-02T03:34:15.020Z,100165.44
2023-01-02T03:36:45.105Z,100156.59
2023-01-02T03:39:20.671Z,100168.09
2023-01-02T03:42:00.503Z,100160.94
2023-01-02T03:44:36.818Z,100158.28
2023-01-02T03:47:23.436Z,100171.56
2023-01-02T03:49:54.701Z,100165.38
2023-01-02T03:52:25.963Z,100175.06
2023-01-02T03:54:54.155Z,100174.19
2023-01-02T03:57:31.623Z,100189.22
2023-01-02T04:00:14.831Z,100183.91
2023-01-02T04:02:57.628Z,100183.91
2023-01-02T04:05:34.716Z,100187.44
2023-01-02T04:08:07.781Z,100189.22
2023-01-02T04:10:37.346Z,100181.25
2023-01-02T04:13:12.010Z,100188.31
2023-01-02T04:15:41.648Z,100182.09
2023-01-02T04:18:11.038Z,100164.38
2023-01-02T04:20:44.324Z,100178.53
2023-01-02T04:23:16.276Z,100167.03
2023-01-02T04:26:06.168Z,100177.66
2023-01-02T04:28:34.502Z,100169.66
2023-01-02T04:31:09.684Z,100172.31
2023-01-02T04:33:49.862Z,100177.59
2023-01-02T04:36:17.106Z,100170.50
2023-01-02T04:38:45.252Z,100174.91
2023-01-02T04:41:26.864Z,100171.41
2023-01-02T04:43:54.708Z,100158.13
2023-01-02T04:46:21.931Z,100175.88
2023-01-02T04:48:48.539Z,100182.94
2023-01-02T04:51:15.278Z,100183.84
2023-01-02T04:53:41.807Z,100182.97
2023-01-02T04:56:09.016Z,100182.06
2023-01-02T04:58:35.588Z,100182.94
2023-01-02T05:01:02.095Z,100174.06
2023-01-02T05:03:28.683Z,100169.59
2023-01-02T05:06:02.022Z,100175.81
2023-01-02T05:08:29.694Z,100182.91
2023-01-02T05:10:57.645Z,100182.91
2023-01-02T05:13:24.107Z,100190.00
2023-01-02T05:15:57.263Z,100191.78
2023-01-02T05:18:23.886Z,100210.34
2023-01-02T05:20:50.335Z,100207.69
2023-01-02T05:23:36.282Z,100217.41
2023-01-02T05:26:02.735Z,100217.41
2023-01-02T05:28:32.529Z,100198.78
2023-01-02T05:31:03.303Z,100206.78
2023-01-02T05:33:29.800Z,100202.34
2023-01-02T05:35:56.296Z,100190.81
2023-01-02T05:38:23.400Z,100177.53
2023-01-02T05:40:49.907Z,100184.66
2023-01-02T05:43:16.337Z,100165.13
2023-01-02T05:45:42.865Z,100187.28
2023-01-02T05:48:09.306Z,100188.19
2023-01-02T05:50:35.774Z,100205.06
2023-01-02T05:53:02.269Z,100208.63
2023-01-02T05:55:28.752Z,100205.06
2023-01-02T05:57:56.126Z,100205.97
2023-01-02T06:00:22.607Z,100211.28
2023-01-02T06:02:49.179Z,100206.84
2023-01-02T06:05:15.914Z,100209.50
2023-01-02T06:07:42.456Z,100203.28
2023-01-02T06:10:09.181Z,100200.63
2023-01-02T06:12:35.647Z,100187.31
2023-01-02T06:15:02.145Z,100174.00
2023-01-02T06:17:28.600Z,100189.03
2023-01-02T06:19:55.100Z,100191.69
2023-01-02T06:22:21.705Z,100194.38
2023-01-02T06:24:48.206Z,100196.13
2023-01-02T06:27:14.788Z,100188.13
2023-01-02T06:29:41.275Z,100185.47
2023-01-02T06:32:07.739Z,100185.44
2023-01-02T06:34:34.271Z,100186.34
2023-01-02T06:37:04.641Z,100186.34
2023-01-02T06:39:35.899Z,100181.91
2023-01-02T06:42:02.477Z,100184.56
2023-01-02T06:44:29.013Z,100169.47
2023-01-02T06:46:55.534Z,100182.78
2023-01-02T06:49:21.983Z,100183.63
2023-01-02T06:51:48.481Z,100185.41
2023-01-02T06:54:14.943Z,100190.72
2023-01-02T06:56:41.465Z,100191.63
2023-01-02T06:59:09.348Z,100191.63
2023-01-02T07:01:35.990Z,100198.69
2023-01-02T07:04:02.523Z,100211.09
2023-01-02T07:06:29.022Z,100204.00
2023-01-02T07:08:55.502Z,100204.91
2023-01-02T07:11:24.092Z,100207.59
2023-01-02T07:13:53.596Z,100210.25
2023-01-02T07:16:21.496Z,100216.47
2023-01-02T07:18:48.641Z,100216.47
2023-01-02T07:21:16.357Z,100216.50
2023-01-02T07:23:42.854Z,100220.03
2023-01-02T07:26:10.204Z,100221.81
2023-01-02T07:28:37.373Z,100228.03
2023-01-02T07:31:06.810Z,100228.91
2023-01-02T07:33:33.687Z,100208.50
2023-01-02T07:36:05.760Z,100216.50
2023-01-02T07:38:33.129Z,100217.34
2023-01-02T07:40:59.917Z,100209.34
2023-01-02T07:43:26.808Z,100219.97
2023-01-02T07:45:53.416Z,100214.66
2023-01-02T07:48:20.089Z,100215.56
2023-01-02T07:50:46.754Z,100226.16
2023-01-02T07:53:13.610Z,100223.47
2023-01-02T07:55:40.138Z,100220.84
2023-01-02T07:58:06.990Z,100211.94
2023-01-02T08:00:33.588Z,100218.09
2023-01-02T08:03:00.716Z,100227.81
2023-01-02T08:05:27.389Z,100231.34
2023-01-02T08:07:53.858Z,100221.63
2023-01-02T08:10:20.364Z,100226.09
2023-01-02T08:12:46.937Z,100230.56
2023-01-02T08:15:13.431Z,100239.44
2023-01-02T08:17:41.500Z,100237.69
2023-01-02T08:20:09.288Z,100235.03
2023-01-02T08:22:35.985Z,100227.91
2023-01-02T08:25:02.811Z,100244.75
2023-01-02T08:27:29.375Z,100232.38
2023-01-02T08:29:56.038Z,100250.13
2023-01-02T08:32:22.705Z,100253.66
2023-01-02T08:34:49.172Z,100254.53
2023-01-02T08:37:15.819Z,100248.34
2023-01-02T08:39:42.333Z,100243.00
2023-01-02T08:42:09.229Z,100238.59
2023-01-02T08:44:37.939Z,100246.56
2023-01-02T08:47:05.302Z,100245.69
2023-01-02T08:49:31.768Z,100249.22
2023-01-02T08:51:58.394Z,100260.72
2023-01-02T08:54:24.952Z,100265.19
2023-01-02T08:56:51.531Z,100269.63
2023-01-02T08:59:18.148Z,100263.44
2023-01-02T09:01:44.807Z,100265.19
2023-01-02T09:04:13.350Z,100265.19
2023-01-02T09:06:41.447Z,100265.16
2023-01-02T09:09:11.982Z,100258.97
2023-01-02T09:11:44.332Z,100267.88
2023-01-02T09:14:10.881Z,100261.69
2023-01-02T09:16:37.556Z,100265.22
2023-01-02T09:19:04.262Z,100260.84
2023-01-02T09:21:30.840Z,100275.00
2023-01-02T09:23:57.665Z,100271.50
2023-01-02T09:26:25.261Z,100267.06
2023-01-02T09:28:51.812Z,100272.41
2023-01-02T09:31:18.753Z,100270.59
2023-01-02T09:33:46.468Z,100275.03
2023-01-02T09:36:15.505Z,100269.69
2023-01-02T09:38:42.614Z,100269.66
2023-01-02T09:41:28.600Z,100273.16
2023-01-02T09:44:03.671Z,100276.75
2023-01-02T09:46:55.848Z,100289.19
2023-01-02T09:49:27.796Z,100298.91
2023-01-02T09:51:54.407Z,100298.03
2023-01-02T09:54:26.678Z,100289.13
2023-01-02T09:57:18.605Z,100293.56
2023-01-02T09:59:52.398Z,100292.63
2023-01-02T10:03:04.180Z,100299.59
2023-01-02T10:05:58.810Z,100293.28
2023-01-02T10:08:37.236Z,100293.25
2023-01-02T10:11:14.203Z,100289.72
2023-01-02T10:14:20.756Z,100291.44
2023-01-02T10:16:38.125Z,100290.53
2023-01-02T10:19:12.407Z,100294.91
2023-01-02T10:21:40.636Z,100289.56
2023-01-02T10:24:17.926Z,100287.72
2023-01-02T10:26:49.537Z,100292.16
2023-01-02T10:29:27.377Z,100298.28
2023-01-02T10:32:05.568Z,100286.72
2023-01-02T10:34:43.209Z,100283.16
2023-01-02T10:37:15.571Z,100282.19
2023-01-02T10:39:44.417Z,100282.19
2023-01-02T10:42:14.082Z,100278.69
2023-01-02T10:44:43.458Z,100283.16
2023-01-02T10:47:35.918Z,100272.53
2023-01-02T10:50:06.454Z,100294.72
2023-01-02T10:52:34.164Z,100284.09
2023-01-02T10:55:01.605Z,100278.78
2023-01-02T10:57:41.111Z,100285.88
2023-01-02T11:00:28.312Z,100291.22
2023-01-02T11:03:00.678Z,100295.66
2023-01-02T11:05:30.245Z,100295.66
2023-01-02T11:07:58.343Z,100295.59
2023-01-02T11:10:43.898Z,100291.16
2023-01-02T11:13:16.040Z,100301.88
2023-01-02T11:15:48.045Z,100301.00
2023-01-02T11:18:22.728Z,100307.25
2023-01-02T11:20:56.987Z,100313.50
2023-01-02T11:23:26.111Z,100329.50
2023-01-02T11:25:54.280Z,100341.97
2023-01-02T11:28:25.411Z,100349.09
2023-01-02T11:31:01.350Z,100359.06
2023-01-02T11:33:31.068Z,100377.03
2023-01-02T11:36:04.777Z,100371.81
2023-01-02T11:38:48.027Z,100360.34
2023-01-02T11:42:08.063Z,100372.75
2023-01-02T11:44:47.105Z,100369.25
2023-01-02T11:47:15.732Z,100368.34
2023-01-02T11:49:49.024Z,100383.41
2023-01-02T11:52:40.283Z,100374.53
2023-01-02T11:55:10.561Z,100374.56
2023-01-02T11:57:49.640Z,100378.94
2023-01-02T12:00:19.329Z,100378.06
2023-01-02T12:02:48.934Z,100386.03
2023-01-02T12:05:32.645Z,100391.34
2023-01-02T12:08:12.937Z,100397.50
2023-01-02T12:11:21.839Z,100392.19
2023-01-02T12:13:54.635Z,100391.28
2023-01-02T12:16:44.594Z,100399.28
2023-01-02T12:19:46.508Z,100401.06
2023-01-02T12:22:24.925Z,100417.00
2023-01-02T12:25:30.497Z,100417.00
2023-01-02T12:28:24.713Z,100425.88
2023-01-02T12:31:32.425Z,100425.88
2023-01-02T12:34:20.887Z,100435.63
2023-01-02T12:37:06.034Z,100432.97
2023-01-02T12:39:50.158Z,100439.16
2023-01-02T12:42:38.216Z,100439.16
2023-01-02T12:45:30.662Z,100454.22
2023-01-02T12:48:09.308Z,100459.53
2023-01-02T12:50:51.595Z,100467.50
2023-01-02T12:53:44.729Z,100459.56
2023-01-02T12:56:38.620Z,100472.81
2023-01-02T12:59:29.790Z,100470.19
2023-01-02T13:02:10.117Z,100460.44
2023-01-02T13:04:48.870Z,100477.25
2023-01-02T13:07:18.177Z,100463.09
2023-01-02T13:09:45.779Z,100477.25
2023-01-02T13:12:19.793Z,100469.28
2023-01-02T13:14:56.182Z,100476.38
2023-01-02T13:17:25.738Z,100480.81
2023-01-02T13:20:38.085Z,100479.03
2023-01-02T13:23:27.762Z,100487.88
2023-01-02T13:26:00.002Z,100499.41
2023-01-02T13:28:26.819Z,100500.28
2023-01-02T13:31:44.213Z,100505.59
2023-01-02T13:33:54.601Z,100501.16
2023-01-02T13:36:38.854Z,100508.22
2023-01-02T13:39:18.381Z,100516.13
2023-01-02T13:42:13.109Z,100508.16
2023-01-02T13:44:44.661Z,100526.75
2023-01-02T13:47:25.997Z,100527.63
2023-01-02T13:50:20.060Z,100540.91
2023-01-02T13:53:25.842Z,100545.31
2023-01-02T13:56:09.138Z,100547.06
2023-01-02T13:58:59.851Z,100548.84
2023-01-02T14:02:01.468Z,100547.03
2023-01-02T14:04:29.905Z,100549.66
2023-01-02T14:07:25.374Z,100557.59
2023-01-02T14:10:07.059Z,100555.81
2023-01-02T14:12:48.434Z,100571.75
2023-01-02T14:15:24.837Z,100570.81
2023-01-02T14:18:06.654Z,100574.34
2023-01-02T14:20:36.507Z,100576.09
2023-01-02T14:23:09.202Z,100563.69
2023-01-02T14:25:48.069Z,100576.06
2023-01-02T14:28:24.519Z,100584.03
2023-01-02T14:30:51.984Z,100573.41
2023-01-02T14:33:29.355Z,100578.72
2023-01-02T14:35:59.403Z,100597.28
2023-01-02T14:38:30.666Z,100615.84
2023-01-02T14:41:15.947Z,100612.28
2023-01-02T14:43:44.789Z,100624.66
2023-01-02T14:46:24.411Z,100628.16
2023-01-02T14:49:25.587Z,100637.84
2023-01-02T14:52:12.325Z,100636.09
2023-01-02T14:54:53.601Z,100641.38
2023-01-02T14:57:37.276Z,100643.13
2023-01-02T15:00:14.244Z,100646.66
2023-01-02T15:02:44.957Z,100657.25
2023-01-02T15:05:26.602Z,100660.78
2023-01-02T15:07:58.334Z,100660.78
2023-01-02T15:10:25.330Z,100659.91
2023-01-02T15:13:03.676Z,100669.59
2023-01-02T15:15:55.925Z,100672.22
2023-01-02T15:18:27.354Z,100683.69
2023-01-02T15:20:56.495Z,100683.63
2023-01-02T15:23:24.808Z,100686.19
2023-01-02T15:25:52.581Z,100691.47
2023-01-02T15:28:39.164Z,100695.78
2023-01-02T15:31:14.548Z,100712.50
2023-01-02T15:33:41.791Z,100704.47
2023-01-02T15:36:12.590Z,100711.44
2023-01-02T15:38:39.658Z,100708.59
2023-01-02T15:41:06.585Z,100706.66
2023-01-02T15:43:53.542Z,100721.50
2023-01-02T15:46:20.688Z,100713.41
2023-01-02T15:48:48.236Z,100715.97
2023-01-02T15:51:20.810Z,100717.75
2023-01-02T15:54:12.109Z,100708.03
2023-01-02T15:56:40.065Z,100694.78
2023-01-02T15:59:22.819Z,100698.25
2023-01-02T16:01:49.564Z,100707.91
2023-01-02T16:04:28.657Z,100729.06
2023-01-02T16:06:57.380Z,100738.69
2023-01-02T16:09:29.256Z,100754.56
2023-01-02T16:11:59.318Z,100742.25
2023-01-02T16:14:40.771Z,100738.72
2023-01-02T16:17:24.372Z,100739.63
2023-01-02T16:20:15.476Z,100744.97
2023-01-02T16:22:49.876Z,100749.41
2023-01-02T16:25:20.806Z,100764.47
2023-01-02T16:28:00.588Z,100754.72
2023-01-02T16:30:29.796Z,100760.00
2023-01-02T16:32:57.131Z,100746.75
2023-01-02T16:35:26.541Z,100751.16
2023-01-02T16:38:05.325Z,100757.31
2023-01-02T16:41:00.752Z,100767.03
2023-01-02T16:43:20.749Z,100779.41
2023-01-02T16:45:49.409Z,100790.00
2023-01-02T16:48:20.399Z,100790.88
2023-01-02T16:50:50.233Z,100797.06
2023-01-02T16:53:24.562Z,100798.81
2023-01-02T16:55:52.360Z,100802.34
2023-01-02T16:58:20.120Z,100801.53
2023-01-02T17:00:49.280Z,100804.19
2023-01-02T17:03:26.898Z,100804.22
2023-01-02T17:06:02.119Z,100805.13
2023-01-02T17:08:31.691Z,100800.66
2023-01-02T17:10:59.011Z,100790.97
2023-01-02T17:13:26.146Z,100789.16
2023-01-02T17:15:53.830Z,100787.31
2023-01-02T17:18:21.024Z,100793.34
2023-01-02T17:20:47.901Z,100797.69
2023-01-02T17:23:14.811Z,100802.91
2023-01-02T17:25:43.649Z,100809.91
2023-01-02T17:28:10.904Z,100810.72
2023-01-02T17:30:37.754Z,100831.84
2023-01-02T17:33:04.695Z,100834.50
2023-01-02T17:35:33.475Z,100838.03
2023-01-02T17:38:00.125Z,100838.94
2023-01-02T17:40:27.287Z,100845.94
2023-01-02T17:42:54.082Z,100845.94
2023-01-02T17:45:20.705Z,100848.50
2023-01-02T17:48:01.197Z,100849.38
2023-01-02T17:50:31.678Z,100850.19
2023-01-02T17:52:58.489Z,100858.13
2023-01-02T17:55:25.174Z,100858.13
2023-01-02T17:57:51.748Z,100858.13
2023-01-02T18:00:18.577Z,100859.91
2023-01-02T18:02:45.511Z,100859.00
2023-01-02T18:05:12.756Z,100860.75
2023-01-02T18:07:39.322Z,100864.28
2023-01-02T18:10:09.623Z,100870.41
2023-01-02T18:12:39.588Z,100872.13
2023-01-02T18:15:14.517Z,100868.63
2023-01-02T18:17:41.560Z,100869.50
2023-01-02T18:20:14.177Z,100867.72
2023-01-02T18:22:48.468Z,100875.63
2023-01-02T18:25:26.927Z,100879.09
2023-01-02T18:28:00.368Z,100876.44
2023-01-02T18:30:27.743Z,100874.63
2023-01-02T18:33:02.699Z,100873.72
2023-01-02T18:38:24.606Z,100889.59
2023-01-02T18:40:53.125Z,100900.16
2023-01-02T18:43:26.279Z,100893.97
2023-01-02T18:45:56.457Z,100895.69
2023-01-02T18:48:23.735Z,100897.44
2023-01-02T18:50:58.069Z,100894.75
2023-01-02T18:53:26.600Z,100896.53
2023-01-02T18:55:59.980Z,100896.53
2023-01-02T18:58:37.332Z,100904.44
2023-01-02T19:01:33.568Z,100921.16
2023-01-02T19:04:17.804Z,100920.28
2023-01-02T19:06:52.126Z,100927.38
2023-01-02T19:09:23.068Z,100924.72
2023-01-02T19:12:16.516Z,100933.53
2023-01-02T19:14:44.454Z,100933.53
2023-01-02T19:17:23.857Z,100938.81
2023-01-02T19:19:51.257Z,100952.94
2023-01-02T19:22:21.147Z,100954.69
2023-01-02T19:24:47.802Z,100952.94
2023-01-02T19:27:26.576Z,100959.09
2023-01-02T19:29:53.923Z,100966.13
2023-01-02T19:32:26.796Z,100961.72
2023-01-02T19:35:09.063Z,100968.78
2023-01-02T19:37:45.337Z,100968.84
2023-01-02T19:40:22.727Z,100974.22
2023-01-02T19:42:51.109Z,100988.31
2023-01-02T19:45:23.033Z,100990.13
2023-01-02T19:47:50.485Z,100999.00
2023-01-02T19:50:20.242Z,100999.81
2023-01-02T19:52:46.900Z,100988.31
2023-01-02T19:55:14.089Z,100993.63
2023-01-02T19:57:40.845Z,101002.41
2023-01-02T20:00:12.777Z,100992.66
2023-01-02T20:02:41.250Z,100997.09
2023-01-02T20:05:08.838Z,101005.84
2023-01-02T20:07:35.319Z,101009.41
2023-01-02T20:10:02.084Z,101016.53
2023-01-02T20:12:35.043Z,101008.53
2023-01-02T20:15:11.283Z,101011.22
2023-01-02T20:17:39.187Z,101020.94
2023-01-02T20:20:08.658Z,101014.75
2023-01-02T20:22:35.385Z,101012.09
2023-01-02T20:25:02.382Z,101025.25
2023-01-02T20:27:28.874Z,101028.72
2023-01-02T20:29:55.437Z,101035.75
2023-01-02T20:32:23.393Z,101038.31
2023-01-02T20:34:51.224Z,101042.69
2023-01-02T20:37:21.954Z,101045.25
2023-01-02T20:39:52.961Z,101051.34
2023-01-02T20:42:20.754Z,101053.06
2023-01-02T20:44:47.992Z,101050.41
2023-01-02T20:47:14.849Z,101054.84
2023-01-02T20:49:41.311Z,101057.50
2023-01-02T20:52:08.613Z,101055.72
2023-01-02T20:54:35.620Z,101067.19
2023-01-02T20:57:02.492Z,101072.47
2023-01-02T20:59:29.138Z,101071.56
2023-01-02T21:01:55.814Z,101084.72
2023-01-02T21:04:24.846Z,101093.38
2023-01-02T21:06:57.633Z,101086.19
2023-01-02T21:09:24.155Z,101101.06
2023-01-02T21:11:50.753Z,101094.75
2023-01-02T21:14:17.240Z,101098.16
2023-01-02T21:16:43.758Z,101102.47
2023-01-02T21:19:10.268Z,101104.09
2023-01-02T21:21:37.079Z,101103.97
2023-01-02T21:24:03.842Z,101109.94
2023-01-02T21:26:30.361Z,101105.22
2023-01-02T21:28:56.890Z,101112.00
2023-01-02T21:31:23.608Z,101122.41
2023-01-02T21:33:50.328Z,101121.41
2023-01-02T21:36:17.023Z,101124.84
2023-01-02T21:38:43.846Z,101125.66
2023-01-02T21:41:29.183Z,101132.75
2023-01-02T21:43:55.570Z,101141.53
2023-01-02T21:46:22.138Z,101146.81
2023-01-02T21:48:48.799Z,101146.03
2023-01-02T21:51:15.265Z,101154.00
2023-01-02T21:53:41.787Z,101147.91
2023-01-02T21:56:08.826Z,101144.34
2023-01-02T21:58:35.284Z,101151.47
2023-01-02T22:01:02.131Z,101165.50
2023-01-02T22:03:29.002Z,101161.88
2023-01-02T22:05:55.635Z,101170.41
2023-01-02T22:08:22.257Z,101170.22
2023-01-02T22:10:49.573Z,101175.31
2023-01-02T22:13:16.376Z,101190.28
2023-01-02T22:15:43.762Z,101200.75
2023-01-02T22:18:10.333Z,101196.28
2023-01-02T22:20:36.931Z,101212.97
2023-01-02T22:23:03.545Z,101211.38
2023-01-02T22:25:31.313Z,101220.31
2023-01-02T22:27:57.881Z,101217.75
2023-01-02T22:30:31.482Z,101231.88
2023-01-02T22:33:00.490Z,101237.13
2023-01-02T22:35:27.737Z,101234.47
2023-01-02T22:37:59.354Z,101237.06
2023-01-02T22:40:28.240Z,101241.31
2023-01-02T22:43:10.503Z,101241.97
2023-01-02T22:45:42.534Z,101253.94
2023-01-02T22:48:18.484Z,101258.94
2023-01-02T22:50:46.987Z,101249.00
2023-01-02T22:53:34.374Z,101256.66
2023-01-02T22:56:02.830Z,101269.59
2023-01-02T22:58:29.299Z,101282.63
2023-01-02T23:01:01.238Z,101286.84
2023-01-02T23:03:29.739Z,101285.78
2023-01-02T23:05:56.802Z,101273.28
2023-01-02T23:08:23.502Z,101290.88
2023-01-02T23:10:50.110Z,101284.69
2023-01-02T23:13:16.816Z,101297.00
2023-01-02T23:16:03.451Z,101291.75
2023-01-02T23:18:56.018Z,101301.28
2023-01-02T23:21:25.053Z,101302.94
2023-01-02T23:23:52.200Z,101301.16
2023-01-02T23:26:19.708Z,101301.03
2023-01-02T23:31:36.196Z,101309.97
2023-01-02T23:34:02.827Z,101305.69
2023-01-02T23:36:29.417Z,101311.88
2023-01-02T23:38:55.949Z,101306.69
2023-01-02T23:41:22.449Z,101315.38
2023-01-02T23:43:49.055Z,101316.16
2023-01-02T23:46:15.629Z,101320.44
2023-01-02T23:48:42.272Z,101329.19
2023-01-02T23:51:08.933Z,101325.69
2023-01-02T23:53:35.579Z,101327.50
2023-01-02T23:56:02.894Z,101325.69
2023-01-02T23:58:29.387Z,101328.41
